^^
Saratoga-Weather Station Historical Data
Daily Summary for February 13, 2018 Units:  English    Metric   Both
Daily Weekly Monthly Yearly Custom
  High: Low: Average:
Temperature: 38.5 °F 21.9 °F 28.3 °F
Dew Point: 21.2 °F 11.0 °F 14.8 °F
Humidity: 79% 35% 58%
Wind Speed: 7.3mph 0.5mph 2.7mph
Wind Gust: 11.5mph - -
Wind- - SW
Pressure: 30.76 in 30.48 in -
Precipitation: 0.00 in    
Historical Graphs
 
 
Tabular Data for February 13, 2018
Time Temperature Dew Point Pressure Wind Wind Speed Wind Gust Humidity Rainfall Rate (Hourly) solar
00:04 27.2 °F 15.5 °F 30.60 in NNW 3.7 mph 4.6 mph 61% 0.00 in 0.0 W/m2
00:09 27.1 °F 15.4 °F 30.60 in NNW 4.0 mph 6.9 mph 61% 0.00 in 0.0 W/m2
00:14 27.0 °F 15.3 °F 30.61 in WNW 5.5 mph 8.1 mph 61% 0.00 in 0.0 W/m2
00:19 26.9 °F 15.2 °F 30.61 in NW 3.4 mph 5.0 mph 61% 0.00 in 0.0 W/m2
00:24 26.8 °F 15.1 °F 30.61 in North 3.1 mph 4.6 mph 61% 0.00 in 0.0 W/m2
00:29 26.7 °F 15.0 °F 30.62 in NNW 4.3 mph 6.9 mph 61% 0.00 in 0.0 W/m2
00:34 26.6 °F 14.9 °F 30.62 in NW 3.3 mph 4.6 mph 61% 0.00 in 0.0 W/m2
00:39 26.5 °F 14.9 °F 30.62 in NNW 4.0 mph 6.9 mph 61% 0.00 in 0.0 W/m2
00:44 26.5 °F 14.5 °F 30.62 in NNW 2.9 mph 3.5 mph 60% 0.00 in 0.0 W/m2
00:49 26.4 °F 14.8 °F 30.62 in NNW 2.7 mph 3.5 mph 61% 0.00 in 0.0 W/m2
00:54 26.3 °F 15.0 °F 30.62 in NW 4.0 mph 4.6 mph 62% 0.00 in 0.0 W/m2
00:59 26.1 °F 14.5 °F 30.62 in NNW 2.8 mph 3.5 mph 61% 0.00 in 0.0 W/m2
01:04 26.1 °F 14.5 °F 30.62 in WNW 2.5 mph 3.5 mph 61% 0.00 in 0.0 W/m2
01:09 26.0 °F 14.4 °F 30.62 in NNW 2.8 mph 4.6 mph 61% 0.00 in 0.0 W/m2
01:14 25.9 °F 14.3 °F 30.62 in NW 2.0 mph 3.5 mph 61% 0.00 in 0.0 W/m2
01:19 25.8 °F 14.6 °F 30.63 in NW 1.9 mph 3.5 mph 62% 0.00 in 0.0 W/m2
01:24 25.7 °F 14.5 °F 30.63 in NW 2.0 mph 3.5 mph 62% 0.00 in 0.0 W/m2
01:29 25.6 °F 14.7 °F 30.63 in NNW 2.6 mph 3.5 mph 63% 0.00 in 0.0 W/m2
01:34 25.5 °F 14.3 °F 30.63 in NNW 1.4 mph 3.5 mph 62% 0.00 in 0.0 W/m2
01:39 25.4 °F 13.8 °F 30.63 in NNW 3.1 mph 4.6 mph 61% 0.00 in 0.0 W/m2
01:44 25.4 °F 14.2 °F 30.64 in North 3.7 mph 5.0 mph 62% 0.00 in 0.0 W/m2
01:49 25.4 °F 13.8 °F 30.64 in NW 3.4 mph 5.8 mph 61% 0.00 in 0.0 W/m2
01:54 25.4 °F 13.8 °F 30.65 in WNW 2.7 mph 3.5 mph 61% 0.00 in 0.0 W/m2
01:59 25.2 °F 13.6 °F 30.65 in NNW 2.1 mph 3.5 mph 61% 0.00 in 0.0 W/m2
02:05 25.2 °F 13.6 °F 30.65 in West 2.2 mph 3.5 mph 61% 0.00 in 0.0 W/m2
02:10 25.2 °F 14.0 °F 30.66 in NNW 2.1 mph 3.5 mph 62% 0.00 in 0.0 W/m2
02:15 25.1 °F 13.5 °F 30.65 in NW 2.0 mph 3.5 mph 61% 0.00 in 0.0 W/m2
02:20 25.0 °F 13.4 °F 30.65 in NW 1.9 mph 3.5 mph 61% 0.00 in 0.0 W/m2
02:25 24.9 °F 13.7 °F 30.66 in NW 1.7 mph 2.3 mph 62% 0.00 in 0.0 W/m2
02:30 24.8 °F 13.6 °F 30.66 in NW 1.6 mph 2.3 mph 62% 0.00 in 0.0 W/m2
02:35 24.8 °F 13.2 °F 30.66 in NW 1.9 mph 3.5 mph 61% 0.00 in 0.0 W/m2
02:40 24.7 °F 13.1 °F 30.65 in NNW 2.0 mph 3.5 mph 61% 0.00 in 0.0 W/m2
02:45 24.6 °F 13.4 °F 30.65 in NNW 1.6 mph 3.0 mph 62% 0.00 in 0.0 W/m2
02:50 24.6 °F 13.8 °F 30.66 in NNW 1.3 mph 2.3 mph 63% 0.00 in 0.0 W/m2
02:55 24.5 °F 13.7 °F 30.66 in NNW 0.6 mph 1.2 mph 63% 0.00 in 0.0 W/m2
03:00 24.4 °F 13.6 °F 30.66 in NNW 0.9 mph 1.2 mph 63% 0.00 in 0.0 W/m2
03:05 24.3 °F 13.1 °F 30.66 in NNW 0.7 mph 1.2 mph 62% 0.00 in 0.0 W/m2
03:10 24.2 °F 13.4 °F 30.67 in NNW 0.7 mph 1.2 mph 63% 0.00 in 0.0 W/m2
03:15 24.0 °F 13.6 °F 30.67 in NNW 1.3 mph 2.3 mph 64% 0.00 in 0.0 W/m2
03:20 23.9 °F 13.8 °F 30.67 in NNW 1.1 mph 2.3 mph 65% 0.00 in 0.0 W/m2
03:25 23.8 °F 14.1 °F 30.67 in NNW 1.5 mph 2.3 mph 66% 0.00 in 0.0 W/m2
03:30 23.6 °F 13.9 °F 30.67 in NNW 1.9 mph 3.0 mph 66% 0.00 in 0.0 W/m2
03:35 23.4 °F 13.4 °F 30.67 in NW 2.2 mph 3.5 mph 65% 0.00 in 0.0 W/m2
03:40 23.4 °F 13.4 °F 30.67 in NW 1.6 mph 3.5 mph 65% 0.00 in 0.0 W/m2
03:46 23.4 °F 13.4 °F 30.67 in NW 1.9 mph 3.5 mph 65% 0.00 in 0.0 W/m2
03:51 23.3 °F 13.3 °F 30.67 in NNW 2.1 mph 3.5 mph 65% 0.00 in 0.0 W/m2
03:56 23.3 °F 13.6 °F 30.68 in NNW 1.8 mph 3.5 mph 66% 0.00 in 0.0 W/m2
04:01 23.3 °F 13.3 °F 30.68 in NNW 1.8 mph 3.5 mph 65% 0.00 in 0.0 W/m2
04:06 23.2 °F 13.2 °F 30.68 in NNW 1.3 mph 3.5 mph 65% 0.00 in 0.0 W/m2
04:11 23.2 °F 13.5 °F 30.68 in NNW 1.7 mph 2.3 mph 66% 0.00 in 0.0 W/m2
04:16 23.2 °F 13.5 °F 30.68 in North 1.7 mph 3.5 mph 66% 0.00 in 0.0 W/m2
04:26 23.0 °F 13.7 °F 30.68 in North 1.9 mph 3.5 mph 67% 0.00 in 0.0 W/m2
04:31 23.0 °F 13.7 °F 30.68 in NNW 2.6 mph 4.0 mph 67% 0.00 in 0.0 W/m2
04:36 23.0 °F 13.3 °F 30.69 in NW 2.0 mph 3.5 mph 66% 0.00 in 0.0 W/m2
04:41 23.0 °F 13.3 °F 30.69 in NNW 2.5 mph 4.0 mph 66% 0.00 in 0.0 W/m2
04:46 23.1 °F 13.1 °F 30.69 in NNW 2.8 mph 3.5 mph 65% 0.00 in 0.0 W/m2
04:51 23.1 °F 13.1 °F 30.69 in NNW 3.4 mph 5.8 mph 65% 0.00 in 0.0 W/m2
04:56 23.1 °F 13.1 °F 30.69 in NNW 3.2 mph 3.5 mph 65% 0.00 in 0.0 W/m2
05:01 23.1 °F 13.1 °F 30.69 in NNW 3.8 mph 4.6 mph 65% 0.00 in 0.0 W/m2
05:06 23.1 °F 13.1 °F 30.69 in NW 3.7 mph 4.6 mph 65% 0.00 in 0.0 W/m2
05:11 23.1 °F 13.1 °F 30.69 in NNW 3.1 mph 4.6 mph 65% 0.00 in 0.0 W/m2
05:16 23.1 °F 13.1 °F 30.69 in NW 3.7 mph 6.9 mph 65% 0.00 in 0.0 W/m2
05:21 23.0 °F 13.3 °F 30.69 in NNW 2.6 mph 3.5 mph 66% 0.00 in 0.0 W/m2
05:26 22.9 °F 13.2 °F 30.70 in NW 3.6 mph 4.6 mph 66% 0.00 in 0.0 W/m2
05:31 22.8 °F 13.1 °F 30.70 in NNW 3.1 mph 4.0 mph 66% 0.00 in 0.0 W/m2
05:36 22.8 °F 13.1 °F 30.70 in NNW 4.0 mph 6.9 mph 66% 0.00 in 0.0 W/m2
05:41 22.7 °F 13.4 °F 30.70 in NNW 2.5 mph 3.5 mph 67% 0.00 in 0.0 W/m2
05:46 22.6 °F 13.3 °F 30.70 in NW 1.9 mph 3.5 mph 67% 0.00 in 0.0 W/m2
05:51 22.5 °F 13.2 °F 30.71 in NW 2.3 mph 3.5 mph 67% 0.00 in 0.0 W/m2
05:56 22.4 °F 13.1 °F 30.71 in West 4.1 mph 7.0 mph 67% 0.00 in 0.0 W/m2
06:01 22.4 °F 12.8 °F 30.71 in NW 4.0 mph 5.8 mph 66% 0.00 in 0.0 W/m2
06:06 22.4 °F 12.8 °F 30.71 in NNW 3.5 mph 4.0 mph 66% 0.00 in 0.0 W/m2
06:11 22.4 °F 12.8 °F 30.71 in NW 3.0 mph 4.0 mph 66% 0.00 in 0.0 W/m2
06:16 22.3 °F 12.7 °F 30.71 in NW 2.0 mph 3.5 mph 66% 0.00 in 0.0 W/m2
06:21 22.2 °F 12.9 °F 30.72 in NW 4.3 mph 4.6 mph 67% 0.00 in 0.0 W/m2
06:26 22.2 °F 12.6 °F 30.72 in North 2.7 mph 4.0 mph 66% 0.00 in 0.0 W/m2
06:31 22.1 °F 12.5 °F 30.72 in NW 3.5 mph 4.6 mph 66% 0.00 in 0.0 W/m2
06:36 22.1 °F 12.5 °F 30.72 in NNW 3.6 mph 4.0 mph 66% 0.00 in 0.0 W/m2
06:41 22.1 °F 12.5 °F 30.73 in NNW 2.6 mph 5.0 mph 66% 0.00 in 0.0 W/m2
06:47 22.1 °F 12.5 °F 30.72 in North 2.3 mph 3.5 mph 66% 0.00 in 0.0 W/m2
06:52 22.1 °F 12.5 °F 30.72 in NNW 2.4 mph 3.5 mph 66% 0.00 in 5.0 W/m2
06:57 22.0 °F 12.4 °F 30.72 in NNW 2.8 mph 4.0 mph 66% 0.00 in 7.0 W/m2
07:02 22.0 °F 12.4 °F 30.72 in North 3.2 mph 4.6 mph 66% 0.00 in 9.0 W/m2
07:07 21.9 °F 12.6 °F 30.73 in NNW 2.2 mph 3.5 mph 67% 0.00 in 11.0 W/m2
07:12 21.9 °F 12.6 °F 30.73 in NNW 3.2 mph 3.5 mph 67% 0.00 in 12.0 W/m2
07:17 21.9 °F 12.6 °F 30.73 in NNW 1.9 mph 3.5 mph 67% 0.00 in 14.0 W/m2
07:22 21.9 °F 12.3 °F 30.73 in NNW 3.0 mph 3.5 mph 66% 0.00 in 16.0 W/m2
07:27 21.9 °F 12.6 °F 30.74 in NNW 2.4 mph 4.0 mph 67% 0.00 in 18.0 W/m2
07:32 22.0 °F 12.4 °F 30.74 in NW 3.0 mph 3.5 mph 66% 0.00 in 19.0 W/m2
07:37 22.0 °F 12.4 °F 30.75 in NNW 2.4 mph 4.0 mph 66% 0.00 in 19.0 W/m2
07:42 22.2 °F 12.2 °F 30.75 in NNW 4.1 mph 8.1 mph 65% 0.00 in 21.0 W/m2
07:47 22.3 °F 12.3 °F 30.75 in North 3.1 mph 4.6 mph 65% 0.00 in 23.0 W/m2
07:52 22.4 °F 12.1 °F 30.75 in NNW 2.4 mph 3.5 mph 64% 0.00 in 25.0 W/m2
07:57 22.6 °F 11.9 °F 30.75 in North 2.6 mph 4.0 mph 63% 0.00 in 26.0 W/m2
08:02 22.7 °F 12.0 °F 30.75 in NNW 3.2 mph 4.6 mph 63% 0.00 in 30.0 W/m2
08:07 22.9 °F 12.2 °F 30.75 in NNE 1.8 mph 3.0 mph 63% 0.00 in 39.0 W/m2
08:12 23.1 °F 12.0 °F 30.75 in NNW 2.4 mph 3.5 mph 62% 0.00 in 40.0 W/m2
08:17 23.3 °F 12.2 °F 30.75 in NNE 3.7 mph 4.6 mph 62% 0.00 in 67.0 W/m2
08:22 23.6 °F 12.1 °F 30.75 in North 3.2 mph 9.2 mph 61% 0.00 in 65.0 W/m2
08:27 23.9 °F 12.0 °F 30.75 in NNW 2.8 mph 3.5 mph 60% 0.00 in 79.0 W/m2
08:32 24.2 °F 12.3 °F 30.75 in North 4.2 mph 5.8 mph 60% 0.00 in 83.0 W/m2
08:37 24.4 °F 12.1 °F 30.75 in NNW 3.9 mph 5.8 mph 59% 0.00 in 83.0 W/m2
08:42 24.6 °F 11.9 °F 30.75 in NW 3.7 mph 5.8 mph 58% 0.00 in 79.0 W/m2
08:47 24.7 °F 12.0 °F 30.76 in North 3.8 mph 5.0 mph 58% 0.00 in 74.0 W/m2
08:52 24.7 °F 11.6 °F 30.76 in NNW 5.5 mph 5.8 mph 57% 0.00 in 105.0 W/m2
08:57 24.7 °F 11.6 °F 30.76 in NNW 4.3 mph 4.6 mph 57% 0.00 in 111.0 W/m2
09:02 24.9 °F 11.8 °F 30.76 in North 3.2 mph 4.6 mph 57% 0.00 in 141.0 W/m2
09:07 25.1 °F 12.0 °F 30.76 in North 5.5 mph 9.2 mph 57% 0.00 in 83.0 W/m2
09:12 25.1 °F 11.6 °F 30.76 in NNW 5.0 mph 6.0 mph 56% 0.00 in 77.0 W/m2
09:18 25.2 °F 11.3 °F 30.76 in NNW 3.3 mph 4.6 mph 55% 0.00 in 84.0 W/m2
09:23 25.3 °F 11.8 °F 30.76 in North 2.4 mph 3.5 mph 56% 0.00 in 111.0 W/m2
09:28 25.5 °F 12.0 °F 30.76 in NNE 5.8 mph 8.1 mph 56% 0.00 in 141.0 W/m2
09:33 25.7 °F 12.2 °F 30.76 in NNE 4.3 mph 6.9 mph 56% 0.00 in 95.0 W/m2
09:38 25.8 °F 12.2 °F 30.76 in NNE 4.3 mph 7.0 mph 56% 0.00 in 102.0 W/m2
09:43 25.9 °F 12.3 °F 30.76 in North 3.6 mph 4.6 mph 56% 0.00 in 185.0 W/m2
09:48 26.1 °F 12.5 °F 30.76 in NNW 4.1 mph 6.9 mph 56% 0.00 in 114.0 W/m2
09:53 26.2 °F 12.2 °F 30.76 in NNW 4.6 mph 5.8 mph 55% 0.00 in 306.0 W/m2
09:58 26.4 °F 12.4 °F 30.76 in NNE 5.8 mph 8.1 mph 55% 0.00 in 417.0 W/m2
10:03 26.5 °F 12.1 °F 30.75 in NNW 3.8 mph 4.6 mph 54% 0.00 in 278.0 W/m2
10:08 26.6 °F 12.2 °F 30.75 in NNW 4.9 mph 5.8 mph 54% 0.00 in 183.0 W/m2
10:13 26.7 °F 11.8 °F 30.75 in North 6.0 mph 8.1 mph 53% 0.00 in 202.0 W/m2
10:18 26.9 °F 12.0 °F 30.75 in North 5.1 mph 8.0 mph 53% 0.00 in 237.0 W/m2
10:23 27.2 °F 12.3 °F 30.75 in NNW 3.9 mph 4.6 mph 53% 0.00 in 323.0 W/m2
10:28 27.4 °F 12.5 °F 30.75 in North 4.3 mph 5.8 mph 53% 0.00 in 392.0 W/m2
10:33 27.6 °F 12.7 °F 30.75 in NNW 4.5 mph 6.9 mph 53% 0.00 in 380.0 W/m2
10:38 27.8 °F 12.9 °F 30.75 in North 2.0 mph 3.5 mph 53% 0.00 in 323.0 W/m2
10:43 28.1 °F 12.7 °F 30.74 in NNE 3.7 mph 4.6 mph 52% 0.00 in 366.0 W/m2
10:48 28.4 °F 12.6 °F 30.74 in North 2.3 mph 5.8 mph 51% 0.00 in 445.0 W/m2
10:53 28.8 °F 12.9 °F 30.74 in North 4.7 mph 5.8 mph 51% 0.00 in 346.0 W/m2
10:58 29.1 °F 13.2 °F 30.74 in North 3.9 mph 4.6 mph 51% 0.00 in 469.0 W/m2
11:03 29.1 °F 12.3 °F 30.74 in NE 7.3 mph 11.5 mph 49% 0.00 in 517.0 W/m2
11:08 29.3 °F 12.5 °F 30.74 in NNE 3.5 mph 5.8 mph 49% 0.00 in 520.0 W/m2
11:13 29.7 °F 12.4 °F 30.74 in NNE 2.8 mph 4.0 mph 48% 0.00 in 596.0 W/m2
11:18 30.0 °F 13.6 °F 30.74 in NNW 2.2 mph 3.5 mph 50% 0.00 in 610.0 W/m2
11:23 30.3 °F 13.4 °F 30.74 in NNW 3.1 mph 3.5 mph 49% 0.00 in 571.0 W/m2
11:28 30.6 °F 14.1 °F 30.73 in NNE 3.1 mph 5.0 mph 50% 0.00 in 563.0 W/m2
11:33 31.2 °F 13.8 °F 30.73 in NNW 2.1 mph 4.6 mph 48% 0.00 in 564.0 W/m2
11:38 31.5 °F 14.0 °F 30.73 in NNE 3.9 mph 5.0 mph 48% 0.00 in 561.0 W/m2
11:43 31.9 °F 14.9 °F 30.73 in NNW 1.8 mph 2.3 mph 49% 0.00 in 584.0 W/m2
11:48 32.4 °F 15.3 °F 30.73 in NE 2.0 mph 3.0 mph 49% 0.00 in 628.0 W/m2
11:53 32.6 °F 14.1 °F 30.73 in NNE 3.2 mph 3.5 mph 46% 0.00 in 598.0 W/m2
11:58 32.6 °F 14.1 °F 30.72 in North 3.3 mph 4.0 mph 46% 0.00 in 628.0 W/m2
12:03 32.9 °F 14.4 °F 30.72 in NW 4.5 mph 5.8 mph 46% 0.00 in 621.0 W/m2
12:08 32.8 °F 14.8 °F 30.72 in WNW 3.4 mph 6.0 mph 47% 0.00 in 608.0 W/m2
12:13 32.5 °F 13.5 °F 30.72 in SSW 2.5 mph 3.5 mph 45% 0.00 in 601.0 W/m2
12:18 32.3 °F 14.3 °F 30.72 in WSW 3.2 mph 4.6 mph 47% 0.00 in 622.0 W/m2
12:23 32.6 °F 14.6 °F 30.71 in NNW 1.9 mph 3.5 mph 47% 0.00 in 557.0 W/m2
12:28 32.8 °F 13.8 °F 30.71 in SW 3.6 mph 3.6 mph 45% 0.00 in 540.0 W/m2
12:33 32.4 °F 12.9 °F 30.71 in West 2.5 mph 3.5 mph 44% 0.00 in 570.0 W/m2
12:38 32.8 °F 13.8 °F 30.71 in WNW 1.9 mph 3.5 mph 45% 0.00 in 573.0 W/m2
12:43 33.2 °F 14.1 °F 30.71 in NW 2.4 mph 3.0 mph 45% 0.00 in 584.0 W/m2
12:49 33.3 °F 14.2 °F 30.71 in West 1.1 mph 3.5 mph 45% 0.00 in 573.0 W/m2
12:54 33.3 °F 13.7 °F 30.70 in NW 2.4 mph 4.6 mph 44% 0.00 in 617.0 W/m2
12:59 33.4 °F 14.3 °F 30.70 in West 0.5 mph 1.2 mph 45% 0.00 in 608.0 W/m2
13:04 34.3 °F 14.6 °F 30.70 in SW 1.8 mph 3.5 mph 44% 0.00 in 612.0 W/m2
13:09 34.6 °F 14.4 °F 30.70 in SW 2.7 mph 3.5 mph 43% 0.00 in 621.0 W/m2
13:14 34.6 °F 15.4 °F 30.70 in NNW 3.2 mph 3.5 mph 45% 0.00 in 605.0 W/m2
13:19 34.3 °F 14.1 °F 30.69 in WNW 3.2 mph 5.8 mph 43% 0.00 in 608.0 W/m2
13:24 34.0 °F 13.3 °F 30.69 in West 2.8 mph 3.5 mph 42% 0.00 in 598.0 W/m2
13:29 33.7 °F 14.1 °F 30.69 in SW 1.7 mph 3.5 mph 44% 0.00 in 568.0 W/m2
13:34 33.6 °F 14.5 °F 30.69 in WSW 2.7 mph 4.0 mph 45% 0.00 in 589.0 W/m2
13:39 33.7 °F 14.6 °F 30.68 in NW 1.7 mph 3.5 mph 45% 0.00 in 526.0 W/m2
13:44 34.2 °F 14.5 °F 30.68 in WNW 1.2 mph 3.0 mph 44% 0.00 in 524.0 W/m2
13:49 34.3 °F 13.6 °F 30.68 in SSW 2.7 mph 4.0 mph 42% 0.00 in 381.0 W/m2
13:54 34.0 °F 13.3 °F 30.67 in SSW 3.7 mph 5.8 mph 42% 0.00 in 234.0 W/m2
13:59 33.9 °F 14.3 °F 30.67 in SSW 3.3 mph 4.0 mph 44% 0.00 in 272.0 W/m2
14:04 33.5 °F 12.8 °F 30.67 in SW 2.9 mph 4.6 mph 42% 0.00 in 424.0 W/m2
14:09 33.3 °F 12.6 °F 30.67 in SSW 2.2 mph 3.5 mph 42% 0.00 in 471.0 W/m2
14:14 33.9 °F 13.7 °F 30.66 in SSE 1.1 mph 2.0 mph 43% 0.00 in 262.0 W/m2
14:19 34.8 °F 13.5 °F 30.66 in SSE 3.1 mph 3.5 mph 41% 0.00 in 313.0 W/m2
14:24 35.6 °F 13.6 °F 30.66 in SE 3.3 mph 4.6 mph 40% 0.00 in 448.0 W/m2
14:29 36.0 °F 14.0 °F 30.66 in SSE 1.2 mph 3.5 mph 40% 0.00 in 334.0 W/m2
14:34 36.0 °F 12.8 °F 30.66 in SW 2.6 mph 3.5 mph 38% 0.00 in 301.0 W/m2
14:39 35.7 °F 12.5 °F 30.65 in SE 4.2 mph 6.9 mph 38% 0.00 in 250.0 W/m2
14:44 36.2 °F 13.0 °F 30.65 in ESE 1.0 mph 2.0 mph 38% 0.00 in 127.0 W/m2
14:49 36.6 °F 13.9 °F 30.65 in ENE 1.6 mph 3.0 mph 39% 0.00 in 134.0 W/m2
14:54 37.3 °F 16.3 °F 30.65 in NNE 1.5 mph 2.3 mph 42% 0.00 in 165.0 W/m2
14:59 37.5 °F 13.6 °F 30.65 in SE 2.0 mph 3.5 mph 37% 0.00 in 260.0 W/m2
15:04 36.8 °F 11.7 °F 30.65 in WNW 2.3 mph 3.5 mph 35% 0.00 in 204.0 W/m2
15:09 36.7 °F 13.4 °F 30.65 in NNE 1.0 mph 3.5 mph 38% 0.00 in 148.0 W/m2
15:14 37.1 °F 13.8 °F 30.65 in NNW 1.0 mph 2.3 mph 38% 0.00 in 141.0 W/m2
15:19 37.5 °F 15.3 °F 30.65 in NE 1.8 mph 3.5 mph 40% 0.00 in 162.0 W/m2
15:24 38.1 °F 14.1 °F 30.65 in SE 1.8 mph 3.5 mph 37% 0.00 in 186.0 W/m2
15:30 37.8 °F 14.4 °F 30.65 in SE 2.9 mph 4.6 mph 38% 0.00 in 241.0 W/m2
15:35 38.0 °F 14.6 °F 30.65 in SE 1.3 mph 3.5 mph 38% 0.00 in 271.0 W/m2
15:40 38.0 °F 14.6 °F 30.65 in South 1.7 mph 3.5 mph 38% 0.00 in 244.0 W/m2
15:45 37.5 °F 13.6 °F 30.65 in SSE 4.8 mph 6.9 mph 37% 0.00 in 206.0 W/m2
15:50 37.5 °F 14.8 °F 30.65 in SSE 0.7 mph 2.3 mph 39% 0.00 in 260.0 W/m2
15:55 38.2 °F 14.8 °F 30.64 in South 2.1 mph 3.5 mph 38% 0.00 in 223.0 W/m2
16:00 38.5 °F 13.8 °F 30.64 in SSE 2.8 mph 4.0 mph 36% 0.00 in 202.0 W/m2
16:05 37.9 °F 13.9 °F 30.64 in SW 0.7 mph 1.2 mph 37% 0.00 in 186.0 W/m2
16:10 37.8 °F 13.2 °F 30.64 in SSE 2.6 mph 3.5 mph 36% 0.00 in 165.0 W/m2
16:15 37.9 °F 13.3 °F 30.64 in SE 0.9 mph 1.2 mph 36% 0.00 in 167.0 W/m2
16:20 37.8 °F 13.2 °F 30.64 in SE 1.9 mph 3.5 mph 36% 0.00 in 165.0 W/m2
16:25 37.5 °F 12.3 °F 30.64 in SSW 2.9 mph 3.5 mph 35% 0.00 in 102.0 W/m2
16:30 36.1 °F 11.0 °F 30.64 in South 2.7 mph 3.5 mph 35% 0.00 in 91.0 W/m2
16:35 35.8 °F 11.4 °F 30.64 in WSW 2.8 mph 3.5 mph 36% 0.00 in 77.0 W/m2
16:40 35.2 °F 11.5 °F 30.63 in SSW 1.8 mph 3.5 mph 37% 0.00 in 62.0 W/m2
16:45 35.1 °F 12.0 °F 30.64 in SSE 2.6 mph 3.5 mph 38% 0.00 in 42.0 W/m2
16:50 35.0 °F 12.5 °F 30.63 in SSE 1.2 mph 2.3 mph 39% 0.00 in 33.0 W/m2
16:55 34.9 °F 11.8 °F 30.64 in SW 1.9 mph 3.5 mph 38% 0.00 in 26.0 W/m2
17:00 34.8 °F 12.3 °F 30.64 in SSE 3.5 mph 3.5 mph 39% 0.00 in 21.0 W/m2
17:05 34.4 °F 15.2 °F 30.64 in South 4.1 mph 5.8 mph 45% 0.00 in 14.0 W/m2
17:10 33.8 °F 15.7 °F 30.64 in South 3.4 mph 10.4 mph 47% 0.00 in 9.0 W/m2
17:15 33.4 °F 16.3 °F 30.64 in SSW 4.1 mph 7.0 mph 49% 0.00 in 5.0 W/m2
17:20 32.8 °F 15.7 °F 30.64 in SSE 4.6 mph 10.4 mph 49% 0.00 in 0.0 W/m2
17:25 32.4 °F 15.3 °F 30.64 in SW 4.5 mph 5.8 mph 49% 0.00 in 0.0 W/m2
17:31 32.0 °F 15.4 °F 30.64 in SSW 4.1 mph 5.8 mph 50% 0.00 in 0.0 W/m2
17:36 31.8 °F 15.7 °F 30.64 in South 3.7 mph 6.0 mph 51% 0.00 in 0.0 W/m2
17:41 31.7 °F 16.1 °F 30.64 in South 3.9 mph 9.0 mph 52% 0.00 in 0.0 W/m2
17:46 31.6 °F 16.0 °F 30.64 in South 3.6 mph 5.8 mph 52% 0.00 in 0.0 W/m2
17:51 31.5 °F 15.9 °F 30.64 in SSW 3.9 mph 6.9 mph 52% 0.00 in 0.0 W/m2
17:56 31.2 °F 16.0 °F 30.64 in SSW 3.7 mph 4.6 mph 53% 0.00 in 0.0 W/m2
18:01 31.0 °F 15.4 °F 30.63 in SSW 4.1 mph 5.8 mph 52% 0.00 in 0.0 W/m2
18:06 30.9 °F 15.3 °F 30.63 in SSE 2.7 mph 3.5 mph 52% 0.00 in 0.0 W/m2
18:11 30.8 °F 15.7 °F 30.63 in South 2.5 mph 3.5 mph 53% 0.00 in 0.0 W/m2
18:16 30.8 °F 15.7 °F 30.63 in SSE 3.6 mph 4.0 mph 53% 0.00 in 0.0 W/m2
18:21 30.7 °F 15.6 °F 30.63 in SSE 3.3 mph 4.0 mph 53% 0.00 in 0.0 W/m2
18:26 30.6 °F 15.9 °F 30.63 in South 2.1 mph 3.5 mph 54% 0.00 in 0.0 W/m2
18:31 30.5 °F 15.8 °F 30.63 in SSE 2.3 mph 3.5 mph 54% 0.00 in 0.0 W/m2
18:36 30.4 °F 16.1 °F 30.63 in South 3.5 mph 5.0 mph 55% 0.00 in 0.0 W/m2
18:41 30.3 °F 16.0 °F 30.63 in SE 3.9 mph 4.6 mph 55% 0.00 in 0.0 W/m2
18:46 30.2 °F 16.4 °F 30.63 in SSE 1.7 mph 3.5 mph 56% 0.00 in 0.0 W/m2
18:51 30.1 °F 16.3 °F 30.63 in SE 2.9 mph 4.0 mph 56% 0.00 in 0.0 W/m2
18:56 30.0 °F 16.6 °F 30.63 in SE 4.3 mph 4.6 mph 57% 0.00 in 0.0 W/m2
19:01 29.9 °F 16.5 °F 30.62 in SSE 3.5 mph 4.0 mph 57% 0.00 in 0.0 W/m2
19:06 29.8 °F 16.8 °F 30.62 in SSE 2.9 mph 3.5 mph 58% 0.00 in 0.0 W/m2
19:11 29.8 °F 17.2 °F 30.61 in SE 2.2 mph 4.6 mph 59% 0.00 in 0.0 W/m2
19:16 29.7 °F 17.1 °F 30.61 in SSE 2.8 mph 3.5 mph 59% 0.00 in 0.0 W/m2
19:21 29.6 °F 17.4 °F 30.61 in South 2.1 mph 3.5 mph 60% 0.00 in 0.0 W/m2
19:26 29.6 °F 17.4 °F 30.61 in SSE 2.7 mph 5.0 mph 60% 0.00 in 0.0 W/m2
19:31 29.5 °F 17.7 °F 30.61 in SE 3.7 mph 8.1 mph 61% 0.00 in 0.0 W/m2
19:41 29.4 °F 18.0 °F 30.61 in South 3.0 mph 3.5 mph 62% 0.00 in 0.0 W/m2
19:46 29.4 °F 18.3 °F 30.60 in SSE 2.3 mph 4.0 mph 63% 0.00 in 0.0 W/m2
19:51 29.4 °F 18.7 °F 30.60 in SE 3.3 mph 5.8 mph 64% 0.00 in 0.0 W/m2
19:57 29.4 °F 18.7 °F 30.60 in SSE 2.3 mph 4.6 mph 64% 0.00 in 0.0 W/m2
20:02 29.3 °F 19.0 °F 30.60 in SSE 3.2 mph 4.0 mph 65% 0.00 in 0.0 W/m2
20:07 29.3 °F 19.0 °F 30.61 in South 1.8 mph 3.5 mph 65% 0.00 in 0.0 W/m2
20:12 29.2 °F 18.9 °F 30.60 in SSE 2.8 mph 4.0 mph 65% 0.00 in 0.0 W/m2
20:17 29.1 °F 19.2 °F 30.60 in SSE 2.7 mph 4.6 mph 66% 0.00 in 0.0 W/m2
20:22 29.0 °F 19.1 °F 30.60 in SE 1.7 mph 4.6 mph 66% 0.00 in 0.0 W/m2
20:27 29.0 °F 19.4 °F 30.60 in SSE 2.5 mph 3.5 mph 67% 0.00 in 0.0 W/m2
20:32 28.9 °F 19.3 °F 30.60 in SE 4.4 mph 5.8 mph 67% 0.00 in 0.0 W/m2
20:37 28.8 °F 19.6 °F 30.60 in SSE 2.2 mph 3.5 mph 68% 0.00 in 0.0 W/m2
20:42 28.7 °F 19.5 °F 30.60 in SE 2.3 mph 3.5 mph 68% 0.00 in 0.0 W/m2
20:47 28.7 °F 19.5 °F 30.59 in South 2.0 mph 3.5 mph 68% 0.00 in 0.0 W/m2
20:52 28.6 °F 19.7 °F 30.59 in SE 1.6 mph 3.5 mph 69% 0.00 in 0.0 W/m2
20:57 28.5 °F 19.6 °F 30.59 in SSE 2.2 mph 3.5 mph 69% 0.00 in 0.0 W/m2
21:02 28.4 °F 19.5 °F 30.58 in South 2.0 mph 2.3 mph 69% 0.00 in 0.0 W/m2
21:07 28.3 °F 19.8 °F 30.58 in SSE 1.9 mph 3.5 mph 70% 0.00 in 0.0 W/m2
21:12 28.1 °F 19.6 °F 30.58 in SE 1.9 mph 3.5 mph 70% 0.00 in 0.0 W/m2
21:17 28.1 °F 19.6 °F 30.58 in SE 2.1 mph 3.5 mph 70% 0.00 in 0.0 W/m2
21:22 28.0 °F 19.8 °F 30.58 in SE 1.8 mph 3.5 mph 71% 0.00 in 0.0 W/m2
21:27 27.9 °F 19.7 °F 30.58 in SSE 1.7 mph 2.3 mph 71% 0.00 in 0.0 W/m2
21:32 27.9 °F 20.0 °F 30.58 in SSE 1.7 mph 4.0 mph 72% 0.00 in 0.0 W/m2
21:37 27.8 °F 19.9 °F 30.58 in SE 1.6 mph 2.3 mph 72% 0.00 in 0.0 W/m2
21:42 27.7 °F 19.8 °F 30.58 in SE 1.0 mph 2.0 mph 72% 0.00 in 0.0 W/m2
21:47 27.7 °F 19.8 °F 30.57 in SE 1.8 mph 2.3 mph 72% 0.00 in 0.0 W/m2
21:52 27.5 °F 20.0 °F 30.58 in SE 0.5 mph 2.3 mph 73% 0.00 in 0.0 W/m2
21:57 27.4 °F 19.9 °F 30.57 in SE 1.9 mph 2.3 mph 73% 0.00 in 0.0 W/m2
22:02 27.4 °F 19.9 °F 30.56 in SE 1.9 mph 3.5 mph 73% 0.00 in 0.0 W/m2
22:07 27.3 °F 20.1 °F 30.56 in SE 1.6 mph 3.5 mph 74% 0.00 in 0.0 W/m2
22:12 27.2 °F 20.0 °F 30.56 in SE 1.6 mph 2.3 mph 74% 0.00 in 0.0 W/m2
22:17 27.2 °F 20.0 °F 30.55 in SE 1.6 mph 2.3 mph 74% 0.00 in 0.0 W/m2
22:22 27.1 °F 20.2 °F 30.54 in SE 2.1 mph 2.3 mph 75% 0.00 in 0.0 W/m2
22:27 27.0 °F 20.1 °F 30.53 in SE 2.1 mph 3.5 mph 75% 0.00 in 0.0 W/m2
22:32 27.0 °F 20.4 °F 30.53 in SE 2.1 mph 3.5 mph 76% 0.00 in 0.0 W/m2
22:37 27.0 °F 20.4 °F 30.53 in SE 2.9 mph 3.5 mph 76% 0.00 in 0.0 W/m2
22:42 27.0 °F 20.4 °F 30.53 in SE 1.9 mph 3.5 mph 76% 0.00 in 0.0 W/m2
22:47 27.0 °F 20.7 °F 30.52 in SE 1.5 mph 3.0 mph 77% 0.00 in 0.0 W/m2
22:52 27.1 °F 20.8 °F 30.52 in SSE 0.9 mph 3.5 mph 77% 0.00 in 0.0 W/m2
22:57 27.1 °F 20.8 °F 30.52 in SSE 1.1 mph 3.5 mph 77% 0.00 in 0.0 W/m2
23:02 27.1 °F 20.8 °F 30.52 in SE 1.6 mph 2.3 mph 77% 0.00 in 0.0 W/m2
23:07 27.1 °F 20.8 °F 30.51 in SE 1.5 mph 2.3 mph 77% 0.00 in 0.0 W/m2
23:12 27.0 °F 20.7 °F 30.51 in SE 1.3 mph 2.3 mph 77% 0.00 in 0.0 W/m2
23:17 27.0 °F 20.7 °F 30.51 in SE 1.6 mph 2.3 mph 77% 0.00 in 0.0 W/m2
23:22 27.0 °F 20.7 °F 30.51 in SE 1.6 mph 3.5 mph 77% 0.00 in 0.0 W/m2
23:27 27.0 °F 20.7 °F 30.50 in SE 1.5 mph 2.3 mph 77% 0.00 in 0.0 W/m2
23:32 27.0 °F 21.1 °F 30.49 in SE 0.9 mph 2.3 mph 78% 0.00 in 0.0 W/m2
23:38 26.9 °F 21.0 °F 30.49 in SE 1.8 mph 3.5 mph 78% 0.00 in 0.0 W/m2
23:43 26.9 °F 21.0 °F 30.49 in SE 2.2 mph 3.5 mph 78% 0.00 in 0.0 W/m2
23:48 26.8 °F 20.9 °F 30.48 in SE 1.7 mph 3.5 mph 78% 0.00 in 0.0 W/m2
23:53 26.8 °F 21.2 °F 30.48 in SE 2.6 mph 3.5 mph 79% 0.00 in 0.0 W/m2
23:58 26.8 °F 21.2 °F 30.48 in SSE 1.9 mph 3.5 mph 79% 0.00 in 0.0 W/m2
Juneau County Weather
Compliments of Weather Underground - 3 mb